sensor_id;sensor_type;location;lat;lon;timestamp;P1;durP1;ratioP1;P2;durP2;ratioP2
58756;SDS011;44527;47.460;19.016;2023-12-20T01:50:46;46.17;;;15.57;;
58756;SDS011;44527;47.460;19.016;2023-12-20T01:53:49;47.85;;;15.98;;
58756;SDS011;44527;47.460;19.016;2023-12-20T01:56:52;43.72;;;16.00;;
58756;SDS011;44527;47.460;19.016;2023-12-20T01:59:55;38.25;;;15.50;;
58756;SDS011;44527;47.460;19.016;2023-12-20T02:03:01;51.78;;;17.08;;
58756;SDS011;44527;47.460;19.016;2023-12-20T02:06:04;45.35;;;16.50;;
58756;SDS011;44527;47.460;19.016;2023-12-20T02:09:07;51.75;;;16.70;;
58756;SDS011;44527;47.460;19.016;2023-12-20T02:12:11;49.25;;;15.60;;
58756;SDS011;44527;47.460;19.016;2023-12-20T02:15:13;64.80;;;16.25;;
58756;SDS011;44527;47.460;19.016;2023-12-20T02:18:17;41.20;;;15.27;;
58756;SDS011;44527;47.460;19.016;2023-12-20T02:21:32;48.58;;;16.65;;
58756;SDS011;44527;47.460;19.016;2023-12-20T02:24:39;45.73;;;15.00;;
58756;SDS011;44527;47.460;19.016;2023-12-20T02:27:42;46.42;;;15.30;;
58756;SDS011;44527;47.460;19.016;2023-12-20T02:30:45;45.28;;;15.88;;
58756;SDS011;44527;47.460;19.016;2023-12-20T02:33:48;42.75;;;14.05;;
58756;SDS011;44527;47.460;19.016;2023-12-20T02:36:52;43.97;;;15.68;;
58756;SDS011;44527;47.460;19.016;2023-12-20T02:39:55;38.90;;;15.00;;
58756;SDS011;44527;47.460;19.016;2023-12-20T02:42:58;46.85;;;16.33;;
58756;SDS011;44527;47.460;19.016;2023-12-20T02:46:00;51.30;;;16.10;;
58756;SDS011;44527;47.460;19.016;2023-12-20T02:49:04;61.15;;;16.83;;
58756;SDS011;44527;47.460;19.016;2023-12-20T02:52:06;52.45;;;16.92;;
58756;SDS011;44527;47.460;19.016;2023-12-20T02:55:12;56.60;;;16.12;;
58756;SDS011;44527;47.460;19.016;2023-12-20T02:58:15;56.90;;;18.25;;
58756;SDS011;44527;47.460;19.016;2023-12-20T03:01:17;45.95;;;14.77;;
58756;SDS011;44527;47.460;19.016;2023-12-20T03:04:20;41.35;;;15.70;;
58756;SDS011;44527;47.460;19.016;2023-12-20T03:07:23;43.72;;;15.05;;
58756;SDS011;44527;47.460;19.016;2023-12-20T03:10:26;47.35;;;17.42;;
58756;SDS011;44527;47.460;19.016;2023-12-20T03:13:29;48.03;;;16.85;;
58756;SDS011;44527;47.460;19.016;2023-12-20T03:16:33;44.00;;;16.83;;
58756;SDS011;44527;47.460;19.016;2023-12-20T03:19:38;43.17;;;15.73;;
58756;SDS011;44527;47.460;19.016;2023-12-20T03:22:41;50.55;;;17.77;;
58756;SDS011;44527;47.460;19.016;2023-12-20T03:25:44;57.50;;;18.80;;
58756;SDS011;44527;47.460;19.016;2023-12-20T03:28:49;49.25;;;18.20;;
58756;SDS011;44527;47.460;19.016;2023-12-20T03:31:52;54.13;;;18.27;;
58756;SDS011;44527;47.460;19.016;2023-12-20T03:34:54;47.10;;;16.67;;
58756;SDS011;44527;47.460;19.016;2023-12-20T03:37:58;51.92;;;16.92;;
58756;SDS011;44527;47.460;19.016;2023-12-20T03:41:02;44.53;;;17.37;;
58756;SDS011;44527;47.460;19.016;2023-12-20T03:44:05;48.13;;;16.50;;
58756;SDS011;44527;47.460;19.016;2023-12-20T03:47:08;43.55;;;15.82;;
58756;SDS011;44527;47.460;19.016;2023-12-20T03:50:15;41.37;;;16.40;;
58756;SDS011;44527;47.460;19.016;2023-12-20T03:53:18;44.13;;;15.48;;
58756;SDS011;44527;47.460;19.016;2023-12-20T03:56:21;44.58;;;14.48;;
58756;SDS011;44527;47.460;19.016;2023-12-20T03:59:23;47.33;;;16.90;;
58756;SDS011;44527;47.460;19.016;2023-12-20T04:02:26;52.55;;;18.42;;
58756;SDS011;44527;47.460;19.016;2023-12-20T04:05:30;44.08;;;16.90;;
58756;SDS011;44527;47.460;19.016;2023-12-20T04:08:33;45.10;;;17.40;;
58756;SDS011;44527;47.460;19.016;2023-12-20T04:11:36;47.95;;;15.68;;
58756;SDS011;44527;47.460;19.016;2023-12-20T04:14:39;39.70;;;15.30;;
58756;SDS011;44527;47.460;19.016;2023-12-20T04:17:42;43.05;;;15.77;;
58756;SDS011;44527;47.460;19.016;2023-12-20T04:20:45;40.40;;;16.10;;
58756;SDS011;44527;47.460;19.016;2023-12-20T04:23:48;46.03;;;16.02;;
58756;SDS011;44527;47.460;19.016;2023-12-20T04:26:53;53.72;;;14.68;;
58756;SDS011;44527;47.460;19.016;2023-12-20T04:29:56;53.33;;;15.98;;
58756;SDS011;44527;47.460;19.016;2023-12-20T04:32:59;50.47;;;15.45;;
58756;SDS011;44527;47.460;19.016;2023-12-20T04:36:02;47.92;;;16.05;;
58756;SDS011;44527;47.460;19.016;2023-12-20T04:39:06;47.28;;;13.62;;
58756;SDS011;44527;47.460;19.016;2023-12-20T04:42:09;38.88;;;13.55;;
58756;SDS011;44527;47.460;19.016;2023-12-20T04:45:12;39.95;;;14.77;;
58756;SDS011;44527;47.460;19.016;2023-12-20T04:48:17;38.22;;;14.80;;
58756;SDS011;44527;47.460;19.016;2023-12-20T04:51:24;48.30;;;13.95;;
58756;SDS011;44527;47.460;19.016;2023-12-20T04:54:39;54.53;;;14.60;;
58756;SDS011;44527;47.460;19.016;2023-12-20T04:57:46;40.60;;;16.05;;
58756;SDS011;44527;47.460;19.016;2023-12-20T05:00:52;39.42;;;14.23;;
58756;SDS011;44527;47.460;19.016;2023-12-20T05:03:55;41.37;;;14.60;;
58756;SDS011;44527;47.460;19.016;2023-12-20T05:06:59;50.10;;;14.65;;
58756;SDS011;44527;47.460;19.016;2023-12-20T05:10:03;49.80;;;15.57;;
58756;SDS011;44527;47.460;19.016;2023-12-20T05:13:07;42.67;;;16.23;;
58756;SDS011;44527;47.460;19.016;2023-12-20T05:16:10;39.30;;;15.80;;
58756;SDS011;44527;47.460;19.016;2023-12-20T05:19:13;45.40;;;16.33;;
58756;SDS011;44527;47.460;19.016;2023-12-20T05:22:16;46.92;;;16.75;;
58756;SDS011;44527;47.460;19.016;2023-12-20T05:25:20;46.33;;;15.27;;
58756;SDS011;44527;47.460;19.016;2023-12-20T05:28:23;62.70;;;16.58;;
58756;SDS011;44527;47.460;19.016;2023-12-20T05:31:27;46.28;;;16.67;;
58756;SDS011;44527;47.460;19.016;2023-12-20T05:34:30;38.40;;;15.35;;
58756;SDS011;44527;47.460;19.016;2023-12-20T05:37:34;64.72;;;18.23;;
58756;SDS011;44527;47.460;19.016;2023-12-20T05:40:37;74.40;;;17.23;;
58756;SDS011;44527;47.460;19.016;2023-12-20T05:43:41;45.38;;;17.20;;
58756;SDS011;44527;47.460;19.016;2023-12-20T05:46:44;50.03;;;18.42;;
58756;SDS011;44527;47.460;19.016;2023-12-20T05:49:48;36.80;;;15.63;;
58756;SDS011;44527;47.460;19.016;2023-12-20T05:52:52;53.53;;;17.15;;
58756;SDS011;44527;47.460;19.016;2023-12-20T05:56:01;46.97;;;16.60;;
58756;SDS011;44527;47.460;19.016;2023-12-20T05:59:05;44.53;;;16.10;;
58756;SDS011;44527;47.460;19.016;2023-12-20T06:02:08;53.85;;;16.25;;
58756;SDS011;44527;47.460;19.016;2023-12-20T06:05:12;55.83;;;15.60;;
58756;SDS011;44527;47.460;19.016;2023-12-20T06:08:16;46.75;;;16.15;;
58756;SDS011;44527;47.460;19.016;2023-12-20T06:11:53;57.70;;;15.75;;
58756;SDS011;44527;47.460;19.016;2023-12-20T06:14:56;49.10;;;16.30;;
58756;SDS011;44527;47.460;19.016;2023-12-20T06:18:00;56.72;;;17.50;;
58756;SDS011;44527;47.460;19.016;2023-12-20T06:21:07;43.75;;;17.75;;
58756;SDS011;44527;47.460;19.016;2023-12-20T06:24:23;54.38;;;18.40;;
58756;SDS011;44527;47.460;19.016;2023-12-20T06:27:29;64.07;;;18.27;;
58756;SDS011;44527;47.460;19.016;2023-12-20T06:30:34;66.05;;;16.92;;
58756;SDS011;44527;47.460;19.016;2023-12-20T06:33:38;79.35;;;15.10;;
58756;SDS011;44527;47.460;19.016;2023-12-20T06:36:43;56.53;;;19.35;;
58756;SDS011;44527;47.460;19.016;2023-12-20T06:39:46;82.32;;;17.85;;
58756;SDS011;44527;47.460;19.016;2023-12-20T06:42:50;52.25;;;15.60;;
58756;SDS011;44527;47.460;19.016;2023-12-20T06:46:08;46.45;;;16.55;;
58756;SDS011;44527;47.460;19.016;2023-12-20T06:49:12;70.15;;;16.90;;
58756;SDS011;44527;47.460;19.016;2023-12-20T06:52:14;44.05;;;15.88;;
58756;SDS011;44527;47.460;19.016;2023-12-20T06:55:18;59.05;;;16.08;;
58756;SDS011;44527;47.460;19.016;2023-12-20T06:58:21;59.25;;;15.13;;
58756;SDS011;44527;47.460;19.016;2023-12-20T07:01:24;48.20;;;16.37;;
58756;SDS011;44527;47.460;19.016;2023-12-20T07:04:27;63.00;;;17.25;;
58756;SDS011;44527;47.460;19.016;2023-12-20T07:07:30;94.00;;;17.42;;
58756;SDS011;44527;47.460;19.016;2023-12-20T07:10:33;54.42;;;16.20;;
58756;SDS011;44527;47.460;19.016;2023-12-20T07:13:36;92.03;;;18.98;;
58756;SDS011;44527;47.460;19.016;2023-12-20T07:16:40;72.47;;;18.92;;
58756;SDS011;44527;47.460;19.016;2023-12-20T07:19:43;67.30;;;18.75;;
58756;SDS011;44527;47.460;19.016;2023-12-20T07:22:45;59.25;;;18.30;;
58756;SDS011;44527;47.460;19.016;2023-12-20T07:25:48;68.12;;;18.85;;
58756;SDS011;44527;47.460;19.016;2023-12-20T07:28:51;107.85;;;18.58;;
58756;SDS011;44527;47.460;19.016;2023-12-20T07:31:54;61.70;;;17.70;;
58756;SDS011;44527;47.460;19.016;2023-12-20T07:34:56;57.72;;;17.67;;
58756;SDS011;44527;47.460;19.016;2023-12-20T07:38:00;109.60;;;18.85;;
58756;SDS011;44527;47.460;19.016;2023-12-20T07:41:02;72.53;;;17.58;;
58756;SDS011;44527;47.460;19.016;2023-12-20T07:44:06;44.40;;;17.67;;
58756;SDS011;44527;47.460;19.016;2023-12-20T07:47:09;78.82;;;18.75;;
58756;SDS011;44527;47.460;19.016;2023-12-20T07:50:14;65.70;;;17.95;;
58756;SDS011;44527;47.460;19.016;2023-12-20T07:53:17;63.03;;;19.48;;
58756;SDS011;44527;47.460;19.016;2023-12-20T07:56:20;94.37;;;19.65;;
58756;SDS011;44527;47.460;19.016;2023-12-20T07:59:23;61.97;;;19.27;;
58756;SDS011;44527;47.460;19.016;2023-12-20T08:02:34;60.03;;;18.00;;
58756;SDS011;44527;47.460;19.016;2023-12-20T08:05:37;67.03;;;20.65;;
58756;SDS011;44527;47.460;19.016;2023-12-20T08:08:42;56.40;;;17.35;;
58756;SDS011;44527;47.460;19.016;2023-12-20T08:11:47;52.55;;;19.17;;
58756;SDS011;44527;47.460;19.016;2023-12-20T08:14:50;52.33;;;18.52;;
58756;SDS011;44527;47.460;19.016;2023-12-20T08:17:53;52.60;;;18.15;;
58756;SDS011;44527;47.460;19.016;2023-12-20T08:20:55;67.12;;;20.10;;
58756;SDS011;44527;47.460;19.016;2023-12-20T08:23:58;55.12;;;18.77;;
58756;SDS011;44527;47.460;19.016;2023-12-20T08:27:02;60.45;;;21.45;;
58756;SDS011;44527;47.460;19.016;2023-12-20T08:30:09;53.00;;;21.17;;
58756;SDS011;44527;47.460;19.016;2023-12-20T08:33:12;50.92;;;20.92;;
58756;SDS011;44527;47.460;19.016;2023-12-20T08:36:15;66.72;;;21.67;;
58756;SDS011;44527;47.460;19.016;2023-12-20T08:39:20;47.88;;;20.48;;
58756;SDS011;44527;47.460;19.016;2023-12-20T08:42:22;64.22;;;21.52;;
58756;SDS011;44527;47.460;19.016;2023-12-20T08:45:29;58.58;;;21.77;;
58756;SDS011;44527;47.460;19.016;2023-12-20T08:48:35;60.28;;;22.17;;
58756;SDS011;44527;47.460;19.016;2023-12-20T08:51:50;63.85;;;22.27;;
58756;SDS011;44527;47.460;19.016;2023-12-20T08:54:54;57.60;;;21.70;;
58756;SDS011;44527;47.460;19.016;2023-12-20T08:57:58;58.08;;;20.27;;
58756;SDS011;44527;47.460;19.016;2023-12-20T09:01:01;60.90;;;21.80;;
58756;SDS011;44527;47.460;19.016;2023-12-20T09:04:09;52.57;;;22.57;;
58756;SDS011;44527;47.460;19.016;2023-12-20T09:07:25;76.37;;;23.52;;
58756;SDS011;44527;47.460;19.016;2023-12-20T09:10:28;53.78;;;22.17;;
58756;SDS011;44527;47.460;19.016;2023-12-20T09:13:32;67.85;;;21.70;;
58756;SDS011;44527;47.460;19.016;2023-12-20T09:16:35;61.47;;;22.65;;
58756;SDS011;44527;47.460;19.016;2023-12-20T09:19:38;63.13;;;23.50;;
58756;SDS011;44527;47.460;19.016;2023-12-20T09:22:41;53.83;;;22.17;;
58756;SDS011;44527;47.460;19.016;2023-12-20T09:25:44;68.28;;;24.12;;
58756;SDS011;44527;47.460;19.016;2023-12-20T09:28:47;73.68;;;24.48;;
58756;SDS011;44527;47.460;19.016;2023-12-20T09:31:50;68.32;;;24.00;;
58756;SDS011;44527;47.460;19.016;2023-12-20T09:34:56;62.60;;;24.48;;
58756;SDS011;44527;47.460;19.016;2023-12-20T09:38:03;64.28;;;25.33;;
58756;SDS011;44527;47.460;19.016;2023-12-20T09:41:07;59.20;;;22.55;;
58756;SDS011;44527;47.460;19.016;2023-12-20T09:44:13;67.12;;;25.58;;
58756;SDS011;44527;47.460;19.016;2023-12-20T09:47:20;62.62;;;25.37;;
58756;SDS011;44527;47.460;19.016;2023-12-20T09:50:26;61.05;;;24.67;;
58756;SDS011;44527;47.460;19.016;2023-12-20T09:53:30;84.03;;;28.02;;
58756;SDS011;44527;47.460;19.016;2023-12-20T09:56:35;73.35;;;26.00;;
58756;SDS011;44527;47.460;19.016;2023-12-20T09:59:39;74.80;;;26.80;;
58756;SDS011;44527;47.460;19.016;2023-12-20T10:03:06;61.35;;;24.80;;
58756;SDS011;44527;47.460;19.016;2023-12-20T10:06:10;67.50;;;24.92;;
58756;SDS011;44527;47.460;19.016;2023-12-20T10:09:13;67.03;;;24.90;;
58756;SDS011;44527;47.460;19.016;2023-12-20T10:12:16;69.80;;;26.17;;
58756;SDS011;44527;47.460;19.016;2023-12-20T10:15:19;72.95;;;28.40;;
58756;SDS011;44527;47.460;19.016;2023-12-20T10:18:23;70.37;;;27.02;;
58756;SDS011;44527;47.460;19.016;2023-12-20T10:21:38;66.40;;;25.85;;
58756;SDS011;44527;47.460;19.016;2023-12-20T10:24:41;69.18;;;25.45;;
58756;SDS011;44527;47.460;19.016;2023-12-20T10:27:44;68.85;;;26.92;;
58756;SDS011;44527;47.460;19.016;2023-12-20T10:30:47;69.10;;;27.20;;
58756;SDS011;44527;47.460;19.016;2023-12-20T10:33:50;72.95;;;27.20;;
58756;SDS011;44527;47.460;19.016;2023-12-20T10:36:53;66.85;;;25.27;;
58756;SDS011;44527;47.460;19.016;2023-12-20T10:39:56;66.72;;;26.60;;
58756;SDS011;44527;47.460;19.016;2023-12-20T10:43:02;67.18;;;27.58;;
58756;SDS011;44527;47.460;19.016;2023-12-20T10:46:05;61.03;;;27.23;;
58756;SDS011;44527;47.460;19.016;2023-12-20T10:49:08;77.43;;;27.60;;
58756;SDS011;44527;47.460;19.016;2023-12-20T10:52:12;70.72;;;29.40;;
58756;SDS011;44527;47.460;19.016;2023-12-20T10:55:15;74.60;;;29.23;;
58756;SDS011;44527;47.460;19.016;2023-12-20T10:58:18;72.35;;;29.63;;
58756;SDS011;44527;47.460;19.016;2023-12-20T11:01:22;79.30;;;30.77;;
58756;SDS011;44527;47.460;19.016;2023-12-20T11:04:28;76.10;;;30.08;;
58756;SDS011;44527;47.460;19.016;2023-12-20T11:07:41;74.82;;;29.90;;
58756;SDS011;44527;47.460;19.016;2023-12-20T11:10:51;73.22;;;30.27;;
58756;SDS011;44527;47.460;19.016;2023-12-20T11:14:04;68.97;;;29.12;;
58756;SDS011;44527;47.460;19.016;2023-12-20T11:17:13;71.40;;;30.17;;
58756;SDS011;44527;47.460;19.016;2023-12-20T11:20:19;76.03;;;28.98;;
58756;SDS011;44527;47.460;19.016;2023-12-20T11:23:24;87.12;;;32.63;;
58756;SDS011;44527;47.460;19.016;2023-12-20T11:26:27;77.82;;;31.10;;
58756;SDS011;44527;47.460;19.016;2023-12-20T11:29:34;76.82;;;31.12;;
58756;SDS011;44527;47.460;19.016;2023-12-20T11:32:39;74.53;;;31.42;;
58756;SDS011;44527;47.460;19.016;2023-12-20T11:35:45;80.95;;;32.55;;
58756;SDS011;44527;47.460;19.016;2023-12-20T11:38:57;79.07;;;29.92;;
58756;SDS011;44527;47.460;19.016;2023-12-20T11:42:06;75.00;;;29.25;;
58756;SDS011;44527;47.460;19.016;2023-12-20T11:45:11;77.10;;;29.67;;
58756;SDS011;44527;47.460;19.016;2023-12-20T11:48:17;79.50;;;31.42;;
58756;SDS011;44527;47.460;19.016;2023-12-20T11:51:21;72.22;;;29.27;;
58756;SDS011;44527;47.460;19.016;2023-12-20T11:54:24;80.05;;;30.85;;
58756;SDS011;44527;47.460;19.016;2023-12-20T11:57:26;72.57;;;29.05;;
58756;SDS011;44527;47.460;19.016;2023-12-20T12:00:30;84.97;;;32.38;;
58756;SDS011;44527;47.460;19.016;2023-12-20T12:03:32;68.93;;;29.37;;
58756;SDS011;44527;47.460;19.016;2023-12-20T12:06:36;73.70;;;30.58;;
58756;SDS011;44527;47.460;19.016;2023-12-20T12:09:42;81.47;;;32.95;;
58756;SDS011;44527;47.460;19.016;2023-12-20T12:12:46;66.75;;;30.10;;
58756;SDS011;44527;47.460;19.016;2023-12-20T12:15:49;52.50;;;22.75;;
58756;SDS011;44527;47.460;19.016;2023-12-20T12:18:56;24.17;;;11.12;;
58756;SDS011;44527;47.460;19.016;2023-12-20T12:22:07;6.43;;;3.08;;
58756;SDS011;44527;47.460;19.016;2023-12-20T12:25:16;12.88;;;3.83;;
58756;SDS011;44527;47.460;19.016;2023-12-20T12:28:20;6.82;;;3.28;;
58756;SDS011;44527;47.460;19.016;2023-12-20T12:31:23;7.50;;;3.67;;
58756;SDS011;44527;47.460;19.016;2023-12-20T12:34:30;7.78;;;3.65;;
58756;SDS011;44527;47.460;19.016;2023-12-20T12:37:39;6.37;;;3.85;;
58756;SDS011;44527;47.460;19.016;2023-12-20T12:40:43;5.97;;;3.40;;
58756;SDS011;44527;47.460;19.016;2023-12-20T12:43:45;6.95;;;3.67;;
58756;SDS011;44527;47.460;19.016;2023-12-20T12:46:48;8.20;;;4.40;;
58756;SDS011;44527;47.460;19.016;2023-12-20T12:49:53;9.48;;;4.37;;
58756;SDS011;44527;47.460;19.016;2023-12-20T12:52:56;8.07;;;4.25;;
58756;SDS011;44527;47.460;19.016;2023-12-20T12:56:00;9.90;;;4.25;;
58756;SDS011;44527;47.460;19.016;2023-12-20T12:59:03;11.95;;;4.28;;
58756;SDS011;44527;47.460;19.016;2023-12-20T13:02:05;6.95;;;3.85;;
58756;SDS011;44527;47.460;19.016;2023-12-20T13:05:08;7.00;;;4.18;;
58756;SDS011;44527;47.460;19.016;2023-12-20T13:08:11;7.55;;;4.05;;
58756;SDS011;44527;47.460;19.016;2023-12-20T13:11:17;7.43;;;4.12;;
58756;SDS011;44527;47.460;19.016;2023-12-20T13:14:21;8.52;;;4.30;;
58756;SDS011;44527;47.460;19.016;2023-12-20T13:17:24;7.15;;;3.80;;
58756;SDS011;44527;47.460;19.016;2023-12-20T13:20:26;9.13;;;3.92;;
58756;SDS011;44527;47.460;19.016;2023-12-20T13:23:29;8.88;;;4.05;;
58756;SDS011;44527;47.460;19.016;2023-12-20T13:26:31;10.57;;;5.30;;
58756;SDS011;44527;47.460;19.016;2023-12-20T13:29:35;9.10;;;4.55;;
58756;SDS011;44527;47.460;19.016;2023-12-20T13:32:41;8.70;;;4.43;;
58756;SDS011;44527;47.460;19.016;2023-12-20T13:35:44;7.47;;;4.18;;
58756;SDS011;44527;47.460;19.016;2023-12-20T13:38:46;9.75;;;4.05;;
58756;SDS011;44527;47.460;19.016;2023-12-20T13:41:49;11.88;;;4.30;;
58756;SDS011;44527;47.460;19.016;2023-12-20T13:44:51;9.75;;;4.70;;
58756;SDS011;44527;47.460;19.016;2023-12-20T13:47:54;12.15;;;4.85;;
58756;SDS011;44527;47.460;19.016;2023-12-20T13:50:56;8.88;;;4.78;;
58756;SDS011;44527;47.460;19.016;2023-12-20T13:53:59;7.40;;;4.15;;
58756;SDS011;44527;47.460;19.016;2023-12-20T13:57:01;6.05;;;3.78;;
58756;SDS011;44527;47.460;19.016;2023-12-20T14:00:18;8.20;;;3.75;;
58756;SDS011;44527;47.460;19.016;2023-12-20T14:03:22;7.05;;;3.67;;
58756;SDS011;44527;47.460;19.016;2023-12-20T14:06:27;8.00;;;3.87;;
58756;SDS011;44527;47.460;19.016;2023-12-20T14:09:31;9.50;;;3.45;;
58756;SDS011;44527;47.460;19.016;2023-12-20T14:12:35;13.32;;;3.70;;
58756;SDS011;44527;47.460;19.016;2023-12-20T14:15:40;13.18;;;5.37;;
58756;SDS011;44527;47.460;19.016;2023-12-20T14:18:42;11.93;;;5.97;;
58756;SDS011;44527;47.460;19.016;2023-12-20T14:21:45;13.90;;;6.35;;
58756;SDS011;44527;47.460;19.016;2023-12-20T14:24:51;14.45;;;7.12;;
58756;SDS011;44527;47.460;19.016;2023-12-20T14:27:54;16.02;;;7.95;;
58756;SDS011;44527;47.460;19.016;2023-12-20T14:30:57;19.62;;;8.88;;
58756;SDS011;44527;47.460;19.016;2023-12-20T14:34:00;15.40;;;8.73;;
58756;SDS011;44527;47.460;19.016;2023-12-20T14:37:05;16.87;;;8.38;;
58756;SDS011;44527;47.460;19.016;2023-12-20T14:40:08;15.85;;;9.35;;
58756;SDS011;44527;47.460;19.016;2023-12-20T14:43:17;17.10;;;9.20;;
58756;SDS011;44527;47.460;19.016;2023-12-20T14:46:20;14.05;;;7.28;;
58756;SDS011;44527;47.460;19.016;2023-12-20T14:49:22;18.48;;;8.75;;
58756;SDS011;44527;47.460;19.016;2023-12-20T14:52:25;15.35;;;8.07;;
58756;SDS011;44527;47.460;19.016;2023-12-20T14:55:27;18.77;;;7.45;;
58756;SDS011;44527;47.460;19.016;2023-12-20T14:58:32;15.07;;;8.10;;
58756;SDS011;44527;47.460;19.016;2023-12-20T15:01:35;15.32;;;7.55;;
58756;SDS011;44527;47.460;19.016;2023-12-20T15:04:38;21.45;;;7.95;;
58756;SDS011;44527;47.460;19.016;2023-12-20T15:07:41;22.65;;;8.10;;
58756;SDS011;44527;47.460;19.016;2023-12-20T15:10:44;14.48;;;7.03;;
58756;SDS011;44527;47.460;19.016;2023-12-20T15:13:46;17.33;;;7.35;;
58756;SDS011;44527;47.460;19.016;2023-12-20T15:16:56;15.18;;;7.60;;
58756;SDS011;44527;47.460;19.016;2023-12-20T15:19:58;16.20;;;7.85;;
58756;SDS011;44527;47.460;19.016;2023-12-20T15:23:02;9.05;;;4.28;;
58756;SDS011;44527;47.460;19.016;2023-12-20T15:26:09;8.15;;;2.90;;
58756;SDS011;44527;47.460;19.016;2023-12-20T15:29:12;7.72;;;3.53;;
58756;SDS011;44527;47.460;19.016;2023-12-20T15:32:18;8.13;;;3.37;;
58756;SDS011;44527;47.460;19.016;2023-12-20T15:35:21;10.02;;;3.72;;
58756;SDS011;44527;47.460;19.016;2023-12-20T15:38:23;6.20;;;3.12;;
58756;SDS011;44527;47.460;19.016;2023-12-20T15:41:29;15.77;;;4.40;;
58756;SDS011;44527;47.460;19.016;2023-12-20T15:44:32;8.50;;;3.95;;
58756;SDS011;44527;47.460;19.016;2023-12-20T15:47:36;5.32;;;3.05;;
58756;SDS011;44527;47.460;19.016;2023-12-20T15:50:41;7.10;;;2.87;;
58756;SDS011;44527;47.460;19.016;2023-12-20T15:53:46;6.78;;;3.42;;
58756;SDS011;44527;47.460;19.016;2023-12-20T15:56:48;6.53;;;3.25;;
58756;SDS011;44527;47.460;19.016;2023-12-20T15:59:51;6.12;;;2.97;;
58756;SDS011;44527;47.460;19.016;2023-12-20T16:02:53;6.78;;;3.28;;
58756;SDS011;44527;47.460;19.016;2023-12-20T16:05:56;14.20;;;5.07;;
58756;SDS011;44527;47.460;19.016;2023-12-20T16:09:00;11.12;;;4.37;;
58756;SDS011;44527;47.460;19.016;2023-12-20T16:12:03;9.52;;;4.57;;
58756;SDS011;44527;47.460;19.016;2023-12-20T16:15:06;10.23;;;5.12;;
58756;SDS011;44527;47.460;19.016;2023-12-20T16:18:10;10.18;;;4.87;;
58756;SDS011;44527;47.460;19.016;2023-12-20T16:21:13;11.12;;;5.30;;
58756;SDS011;44527;47.460;19.016;2023-12-20T16:24:16;9.35;;;4.50;;
58756;SDS011;44527;47.460;19.016;2023-12-20T16:27:18;9.85;;;5.55;;
58756;SDS011;44527;47.460;19.016;2023-12-20T16:30:21;10.13;;;5.03;;
58756;SDS011;44527;47.460;19.016;2023-12-20T16:33:23;7.28;;;4.07;;
58756;SDS011;44527;47.460;19.016;2023-12-20T16:36:29;7.47;;;3.53;;
58756;SDS011;44527;47.460;19.016;2023-12-20T16:39:52;8.13;;;3.90;;
58756;SDS011;44527;47.460;19.016;2023-12-20T16:42:56;6.55;;;3.53;;
58756;SDS011;44527;47.460;19.016;2023-12-20T16:45:58;11.55;;;4.97;;
58756;SDS011;44527;47.460;19.016;2023-12-20T16:49:04;7.90;;;4.50;;
58756;SDS011;44527;47.460;19.016;2023-12-20T16:52:06;10.50;;;4.80;;
58756;SDS011;44527;47.460;19.016;2023-12-20T16:55:09;15.75;;;5.97;;
58756;SDS011;44527;47.460;19.016;2023-12-20T16:58:13;12.60;;;5.45;;
58756;SDS011;44527;47.460;19.016;2023-12-20T17:01:16;10.35;;;4.57;;
58756;SDS011;44527;47.460;19.016;2023-12-20T17:04:18;8.73;;;4.57;;
58756;SDS011;44527;47.460;19.016;2023-12-20T17:07:24;11.30;;;5.32;;
58756;SDS011;44527;47.460;19.016;2023-12-20T17:10:26;8.10;;;4.60;;
58756;SDS011;44527;47.460;19.016;2023-12-20T17:13:29;9.93;;;5.25;;
58756;SDS011;44527;47.460;19.016;2023-12-20T17:16:33;12.73;;;5.53;;
58756;SDS011;44527;47.460;19.016;2023-12-20T17:19:35;10.68;;;5.55;;
58756;SDS011;44527;47.460;19.016;2023-12-20T17:22:38;12.05;;;5.45;;
58756;SDS011;44527;47.460;19.016;2023-12-20T17:25:41;10.98;;;5.28;;
58756;SDS011;44527;47.460;19.016;2023-12-20T17:28:44;12.77;;;5.95;;
58756;SDS011;44527;47.460;19.016;2023-12-20T17:31:46;10.68;;;5.22;;
58756;SDS011;44527;47.460;19.016;2023-12-20T17:34:49;9.25;;;4.78;;
58756;SDS011;44527;47.460;19.016;2023-12-20T17:37:52;12.37;;;5.18;;
58756;SDS011;44527;47.460;19.016;2023-12-20T17:40:55;9.63;;;4.70;;
58756;SDS011;44527;47.460;19.016;2023-12-20T17:43:58;8.65;;;4.57;;
58756;SDS011;44527;47.460;19.016;2023-12-20T17:47:01;8.07;;;4.47;;
58756;SDS011;44527;47.460;19.016;2023-12-20T17:50:04;15.05;;;6.85;;
58756;SDS011;44527;47.460;19.016;2023-12-20T17:53:07;12.37;;;6.97;;
58756;SDS011;44527;47.460;19.016;2023-12-20T17:56:09;13.20;;;7.25;;
58756;SDS011;44527;47.460;19.016;2023-12-20T17:59:12;16.98;;;7.65;;
58756;SDS011;44527;47.460;19.016;2023-12-20T18:02:14;18.67;;;8.52;;
58756;SDS011;44527;47.460;19.016;2023-12-20T18:05:18;15.52;;;7.75;;
58756;SDS011;44527;47.460;19.016;2023-12-20T18:08:22;14.25;;;7.62;;
58756;SDS011;44527;47.460;19.016;2023-12-20T18:11:24;17.50;;;8.60;;
58756;SDS011;44527;47.460;19.016;2023-12-20T18:14:27;18.17;;;8.00;;
58756;SDS011;44527;47.460;19.016;2023-12-20T18:17:30;16.30;;;8.77;;
58756;SDS011;44527;47.460;19.016;2023-12-20T18:20:32;16.48;;;8.85;;
58756;SDS011;44527;47.460;19.016;2023-12-20T18:23:35;15.32;;;8.00;;
58756;SDS011;44527;47.460;19.016;2023-12-20T18:26:38;21.55;;;9.80;;
58756;SDS011;44527;47.460;19.016;2023-12-20T18:29:41;20.52;;;9.32;;
58756;SDS011;44527;47.460;19.016;2023-12-20T18:32:44;20.88;;;10.10;;
58756;SDS011;44527;47.460;19.016;2023-12-20T18:35:47;23.38;;;11.35;;
58756;SDS011;44527;47.460;19.016;2023-12-20T18:38:49;22.40;;;10.43;;
58756;SDS011;44527;47.460;19.016;2023-12-20T18:41:51;25.40;;;11.52;;
58756;SDS011;44527;47.460;19.016;2023-12-20T18:44:54;20.90;;;10.35;;
58756;SDS011;44527;47.460;19.016;2023-12-20T18:47:58;21.92;;;11.07;;
58756;SDS011;44527;47.460;19.016;2023-12-20T18:51:00;22.98;;;11.00;;
58756;SDS011;44527;47.460;19.016;2023-12-20T18:54:03;24.52;;;10.95;;
58756;SDS011;44527;47.460;19.016;2023-12-20T18:57:06;20.48;;;10.77;;
58756;SDS011;44527;47.460;19.016;2023-12-20T19:00:11;22.98;;;10.65;;
58756;SDS011;44527;47.460;19.016;2023-12-20T19:03:15;18.80;;;9.48;;
58756;SDS011;44527;47.460;19.016;2023-12-20T19:06:18;24.23;;;11.20;;
58756;SDS011;44527;47.460;19.016;2023-12-20T19:09:20;21.45;;;10.90;;
58756;SDS011;44527;47.460;19.016;2023-12-20T19:12:23;27.58;;;12.82;;
58756;SDS011;44527;47.460;19.016;2023-12-20T19:15:25;28.70;;;12.65;;
58756;SDS011;44527;47.460;19.016;2023-12-20T19:18:28;23.42;;;11.55;;
58756;SDS011;44527;47.460;19.016;2023-12-20T19:21:31;23.05;;;11.70;;
58756;SDS011;44527;47.460;19.016;2023-12-20T19:24:33;25.83;;;11.75;;
58756;SDS011;44527;47.460;19.016;2023-12-20T19:27:36;22.70;;;11.85;;
58756;SDS011;44527;47.460;19.016;2023-12-20T19:30:39;29.98;;;12.60;;
58756;SDS011;44527;47.460;19.016;2023-12-20T19:33:41;30.12;;;13.15;;
58756;SDS011;44527;47.460;19.016;2023-12-20T19:36:44;36.30;;;14.68;;
58756;SDS011;44527;47.460;19.016;2023-12-20T19:39:47;28.85;;;13.68;;